Time;durP1;ratioP1;P1;durP2;ratioP2;P2;SDS_P1;SDS_P2;PMS_P1;PMS_P2;Temp;Humidity;BMP_temperature;BMP_pressure;BME280_temperature;BME280_humidity;BME280_pressure;Samples;Min_cycle;Max_cycle;Signal;HPM_P1;HPM_P2
2023/08/04 00:01:24;;;;;;;13.07;3.58;;;17.30;99.90;;;;;;5057053;28;20040;-66
2023/08/04 00:03:50;;;;;;;15.52;4.43;;;17.30;99.90;;;;;;5051891;28;20032;-67
2023/08/04 00:06:15;;;;;;;13.23;4.03;;;17.30;99.90;;;;;;5051046;28;20039;-68
2023/08/04 00:08:41;;;;;;;15.57;4.63;;;17.30;99.90;;;;;;5051715;28;20032;-66
2023/08/04 00:11:07;;;;;;;19.83;5.25;;;17.30;99.90;;;;;;5051325;28;20037;-68
2023/08/04 00:13:32;;;;;;;14.95;4.07;;;17.30;99.90;;;;;;5051571;28;20072;-67
2023/08/04 00:16:08;;;;;;;21.38;4.85;;;17.40;99.90;;;;;;5048691;28;20495;-68
2023/08/04 00:18:34;;;;;;;12.30;4.00;;;17.40;99.90;;;;;;5051655;28;20028;-68
2023/08/04 00:21:00;;;;;;;14.75;4.10;;;17.40;99.90;;;;;;5051292;28;20025;-67
2023/08/04 00:23:26;;;;;;;18.33;4.82;;;17.40;99.90;;;;;;5053246;28;20029;-66
2023/08/04 00:25:51;;;;;;;17.35;4.32;;;17.40;99.90;;;;;;5055234;28;20025;-68
2023/08/04 00:28:17;;;;;;;17.67;4.45;;;17.40;99.90;;;;;;5054615;28;20025;-68
2023/08/04 00:30:42;;;;;;;19.20;4.53;;;17.40;99.90;;;;;;5055211;28;20098;-69
2023/08/04 00:33:09;;;;;;;16.80;4.97;;;17.40;99.90;;;;;;5055588;28;20028;-68
2023/08/04 00:35:35;;;;;;;15.40;4.10;;;17.40;99.90;;;;;;5055251;28;20115;-68
2023/08/04 00:38:00;;;;;;;19.15;4.40;;;17.40;99.90;;;;;;5054948;28;20077;-67
2023/08/04 00:40:28;;;;;;;13.43;4.05;;;17.40;99.90;;;;;;5055014;28;20112;-67
2023/08/04 00:42:54;;;;;;;19.15;5.03;;;17.40;99.90;;;;;;5054558;28;20021;-69
2023/08/04 00:45:21;;;;;;;14.90;4.18;;;17.40;99.90;;;;;;5055031;28;20017;-68
2023/08/04 00:47:46;;;;;;;15.95;4.10;;;17.30;99.90;;;;;;5056972;28;20124;-67
2023/08/04 00:50:14;;;;;;;14.57;3.90;;;17.40;99.90;;;;;;5063230;28;20195;-68
2023/08/04 00:52:41;;;;;;;14.52;4.25;;;17.40;99.90;;;;;;5063678;28;20493;-68
2023/08/04 00:55:08;;;;;;;13.98;3.78;;;17.40;99.90;;;;;;5069857;28;20028;-67
2023/08/04 00:57:37;;;;;;;11.52;4.00;;;17.30;99.90;;;;;;5058374;28;20473;-69
2023/08/04 01:00:02;;;;;;;18.65;4.15;;;17.30;99.90;;;;;;5069040;28;20025;-67
2023/08/04 01:02:28;;;;;;;16.92;4.00;;;17.30;99.90;;;;;;5064640;28;20036;-67
2023/08/04 01:04:54;;;;;;;12.57;3.80;;;17.40;99.90;;;;;;5061589;28;20116;-67
2023/08/04 01:07:30;;;;;;;19.88;4.90;;;17.40;99.90;;;;;;5071202;28;20032;-68
2023/08/04 01:10:15;;;;;;;17.30;4.55;;;17.40;99.90;;;;;;5058398;28;20040;-67
2023/08/04 01:12:55;;;;;;;13.40;4.18;;;17.40;99.90;;;;;;5063466;28;20044;-67
2023/08/04 01:15:24;;;;;;;15.38;4.25;;;17.40;99.90;;;;;;5070974;28;20024;-68
2023/08/04 01:17:49;;;;;;;14.43;5.05;;;17.40;99.90;;;;;;5059258;28;20044;-68
2023/08/04 01:20:15;;;;;;;13.95;4.68;;;17.50;99.90;;;;;;5066546;28;20029;-68
2023/08/04 01:22:40;;;;;;;14.52;5.03;;;17.40;99.90;;;;;;5066007;28;20055;-68
2023/08/04 01:25:06;;;;;;;17.30;5.97;;;17.40;99.90;;;;;;5059725;28;20032;-67
2023/08/04 01:27:42;;;;;;;14.38;4.25;;;17.40;99.90;;;;;;5071086;28;20029;-67
2023/08/04 01:30:13;;;;;;;17.30;5.57;;;17.40;99.90;;;;;;5061390;28;20071;-67
2023/08/04 01:32:39;;;;;;;16.92;5.93;;;17.50;99.90;;;;;;5063330;28;20064;-69
2023/08/04 01:35:09;;;;;;;12.45;4.75;;;17.40;99.90;;;;;;5067994;28;20125;-65
2023/08/04 01:37:35;;;;;;;13.93;5.18;;;17.50;99.90;;;;;;5057928;28;20477;-67
2023/08/04 01:40:00;;;;;;;12.43;5.18;;;17.40;99.90;;;;;;5068318;28;20035;-67
2023/08/04 01:42:26;;;;;;;13.38;4.65;;;17.40;99.90;;;;;;5063272;28;20046;-66
2023/08/04 01:44:51;;;;;;;10.73;4.88;;;17.40;99.90;;;;;;5061038;28;20171;-67
2023/08/04 01:47:17;;;;;;;14.38;4.57;;;17.40;99.90;;;;;;5070616;28;20028;-67
2023/08/04 01:49:42;;;;;;;14.57;4.30;;;17.40;99.90;;;;;;5057458;28;20032;-67
2023/08/04 01:52:08;;;;;;;13.95;5.00;;;17.40;99.90;;;;;;5067212;28;20033;-67
2023/08/04 01:54:33;;;;;;;14.27;4.18;;;17.40;99.90;;;;;;5064704;28;20102;-69
2023/08/04 01:56:59;;;;;;;11.55;3.92;;;17.40;99.90;;;;;;5060101;28;20040;-67
2023/08/04 01:59:24;;;;;;;12.85;3.63;;;17.40;99.90;;;;;;5066621;28;20020;-68
2023/08/04 02:01:50;;;;;;;10.88;3.95;;;17.40;99.90;;;;;;5062480;28;20035;-67
2023/08/04 02:04:16;;;;;;;9.02;4.15;;;17.40;99.90;;;;;;5065487;28;20090;-66
2023/08/04 02:06:41;;;;;;;15.20;4.35;;;17.30;99.90;;;;;;5065188;28;20024;-67
2023/08/04 02:09:07;;;;;;;8.57;3.38;;;17.30;99.90;;;;;;5058701;28;20086;-67
2023/08/04 02:11:32;;;;;;;14.52;4.18;;;17.30;99.90;;;;;;5070224;28;20032;-67
2023/08/04 02:14:01;;;;;;;13.77;4.10;;;17.40;99.90;;;;;;5059193;28;20035;-67
2023/08/04 02:16:26;;;;;;;8.88;3.78;;;17.40;99.90;;;;;;5062782;28;20062;-67
2023/08/04 02:19:01;;;;;;;10.90;3.75;;;17.40;99.90;;;;;;5066198;28;20028;-68
2023/08/04 02:21:27;;;;;;;10.73;4.10;;;17.40;99.90;;;;;;5056920;28;20029;-68
2023/08/04 02:23:52;;;;;;;11.43;4.03;;;17.40;99.90;;;;;;5068518;28;20029;-67
2023/08/04 02:26:18;;;;;;;12.27;3.95;;;17.40;99.90;;;;;;5061737;28;20036;-68
2023/08/04 02:28:43;;;;;;;10.07;4.32;;;17.40;99.90;;;;;;5061693;28;20080;-67
2023/08/04 02:31:09;;;;;;;11.77;3.92;;;17.40;99.90;;;;;;5068542;28;20400;-67
2023/08/04 02:33:34;;;;;;;10.90;3.80;;;17.40;99.90;;;;;;5056435;28;20374;-67
2023/08/04 02:36:01;;;;;;;13.63;3.90;;;17.40;99.90;;;;;;5067175;28;20029;-65
2023/08/04 02:38:27;;;;;;;10.57;3.80;;;17.40;99.90;;;;;;5062458;28;20032;-68
2023/08/04 02:40:52;;;;;;;16.38;4.00;;;17.40;99.90;;;;;;5060141;28;20021;-67
2023/08/04 02:43:18;;;;;;;10.95;3.83;;;17.40;99.90;;;;;;5069435;28;20035;-68
2023/08/04 02:45:51;;;;;;;6.50;3.20;;;17.50;99.90;;;;;;5056011;28;20032;-67
2023/08/04 02:48:16;;;;;;;12.93;3.97;;;17.50;99.90;;;;;;5062936;28;20044;-67
2023/08/04 02:50:42;;;;;;;8.80;3.95;;;17.50;99.90;;;;;;5053805;28;20040;-69
2023/08/04 02:53:07;;;;;;;10.15;3.47;;;17.50;99.90;;;;;;5068350;28;20064;-69
2023/08/04 02:55:33;;;;;;;13.82;3.47;;;17.50;99.90;;;;;;5055911;28;20350;-66
2023/08/04 02:57:59;;;;;;;8.75;3.45;;;17.50;99.90;;;;;;5067307;28;20044;-69
2023/08/04 03:00:26;;;;;;;11.00;3.38;;;17.40;99.90;;;;;;5061741;28;20036;-68
2023/08/04 03:02:51;;;;;;;7.35;3.42;;;17.40;99.90;;;;;;5059926;28;20032;-68
2023/08/04 03:05:17;;;;;;;11.95;3.42;;;17.40;99.90;;;;;;5068938;28;20073;-67
2023/08/04 03:07:42;;;;;;;13.30;3.53;;;17.40;99.90;;;;;;5055907;28;20024;-67
2023/08/04 03:10:08;;;;;;;11.23;3.20;;;17.40;99.90;;;;;;5065700;28;20028;-68
2023/08/04 03:12:34;;;;;;;13.52;3.72;;;17.40;99.90;;;;;;5063188;28;20039;-69
2023/08/04 03:14:59;;;;;;;9.50;3.53;;;17.40;99.90;;;;;;5058133;28;20028;-68
2023/08/04 03:17:25;;;;;;;11.57;3.58;;;17.40;99.90;;;;;;5067643;28;20032;-68
2023/08/04 03:19:50;;;;;;;12.45;3.95;;;17.40;99.90;;;;;;5057048;28;20047;-68
2023/08/04 03:22:16;;;;;;;8.23;3.70;;;17.40;99.90;;;;;;5064287;28;20033;-69
2023/08/04 03:24:41;;;;;;;8.77;3.67;;;17.40;99.90;;;;;;5063759;28;20484;-68
2023/08/04 03:27:07;;;;;;;10.07;3.33;;;17.40;99.90;;;;;;5057107;28;20040;-66
2023/08/04 03:29:32;;;;;;;14.70;3.90;;;17.40;99.90;;;;;;5068245;28;20052;-68
2023/08/04 03:31:58;;;;;;;13.70;3.92;;;17.40;99.90;;;;;;5056618;28;20025;-68
2023/08/04 03:34:24;;;;;;;12.23;3.65;;;17.40;99.90;;;;;;5063278;28;20029;-67
2023/08/04 03:36:49;;;;;;;9.52;3.17;;;17.40;99.90;;;;;;5064670;28;20099;-66
2023/08/04 03:39:15;;;;;;;11.52;3.35;;;17.40;99.90;;;;;;5056377;28;20039;-67
2023/08/04 03:41:40;;;;;;;11.55;3.53;;;17.40;99.90;;;;;;5068378;28;20033;-68
2023/08/04 03:44:06;;;;;;;15.50;3.58;;;17.40;99.90;;;;;;5058971;28;20108;-67
2023/08/04 03:46:31;;;;;;;11.52;3.20;;;17.40;99.90;;;;;;5072202;28;20016;-67
2023/08/04 03:48:57;;;;;;;11.02;3.40;;;17.40;99.90;;;;;;5058305;28;20032;-66
2023/08/04 03:51:22;;;;;;;8.98;3.53;;;17.40;99.90;;;;;;5068267;28;20036;-66
2023/08/04 03:53:48;;;;;;;10.18;3.00;;;17.40;99.90;;;;;;5056083;28;20025;-67
2023/08/04 03:56:14;;;;;;;7.57;3.22;;;17.40;99.90;;;;;;5064497;28;20033;-66
2023/08/04 03:58:40;;;;;;;9.85;3.25;;;17.40;99.90;;;;;;5065243;28;20036;-68
2023/08/04 04:01:06;;;;;;;10.73;3.03;;;17.40;99.90;;;;;;5061459;28;20033;-68
2023/08/04 04:03:31;;;;;;;7.47;2.70;;;17.40;99.90;;;;;;5072821;28;20032;-67
2023/08/04 04:05:57;;;;;;;9.05;3.10;;;17.40;99.90;;;;;;5061693;28;20025;-67
2023/08/04 04:08:22;;;;;;;8.57;2.70;;;17.40;99.90;;;;;;5067399;28;20032;-67
2023/08/04 04:10:48;;;;;;;8.57;3.13;;;17.40;99.90;;;;;;5068279;28;20047;-68
2023/08/04 04:13:14;;;;;;;9.15;3.13;;;17.40;99.90;;;;;;5060593;28;20024;-67
2023/08/04 04:15:39;;;;;;;6.57;3.10;;;17.40;99.90;;;;;;5072524;28;20443;-69
2023/08/04 04:18:05;;;;;;;8.68;2.80;;;17.40;99.90;;;;;;5062950;28;20032;-67
2023/08/04 04:20:30;;;;;;;10.13;3.05;;;17.40;99.90;;;;;;5064816;28;20441;-68
2023/08/04 04:22:56;;;;;;;12.00;3.53;;;17.50;99.90;;;;;;5069262;28;20115;-67
2023/08/04 04:25:21;;;;;;;11.00;3.38;;;17.50;99.90;;;;;;5059173;28;20076;-67
2023/08/04 04:27:47;;;;;;;12.65;3.42;;;17.50;99.90;;;;;;5071515;28;20112;-67
2023/08/04 04:30:12;;;;;;;13.27;3.20;;;17.50;99.90;;;;;;5063023;28;20496;-68
2023/08/04 04:32:38;;;;;;;9.50;3.30;;;17.50;99.90;;;;;;5064644;28;20053;-68
2023/08/04 04:35:04;;;;;;;10.27;2.85;;;17.50;99.90;;;;;;5070254;28;20035;-68
2023/08/04 04:37:29;;;;;;;14.40;3.47;;;17.50;99.90;;;;;;5059152;28;20036;-68
2023/08/04 04:39:55;;;;;;;9.52;2.90;;;17.50;99.90;;;;;;5068867;28;20027;-68
2023/08/04 04:42:21;;;;;;;9.30;3.25;;;17.50;99.90;;;;;;5059869;28;20024;-69
2023/08/04 04:44:46;;;;;;;12.70;3.20;;;17.50;99.90;;;;;;5067286;28;20024;-67
2023/08/04 04:47:12;;;;;;;8.40;2.90;;;17.50;99.90;;;;;;5059176;28;20033;-70
2023/08/04 04:49:37;;;;;;;11.55;3.25;;;17.50;99.90;;;;;;5072176;28;20029;-68
2023/08/04 04:52:05;;;;;;;13.55;3.00;;;17.60;99.90;;;;;;5061578;28;20112;-68
2023/08/04 04:54:30;;;;;;;10.65;3.35;;;17.60;99.90;;;;;;5065289;28;20033;-67
2023/08/04 04:56:56;;;;;;;10.40;3.47;;;17.60;99.90;;;;;;5069194;28;20025;-66
2023/08/04 04:59:21;;;;;;;12.15;3.30;;;17.60;99.90;;;;;;5058267;28;20025;-68
2023/08/04 05:01:47;;;;;;;14.45;4.95;;;17.60;99.90;;;;;;5071124;28;20028;-66
2023/08/04 05:04:13;;;;;;;14.90;3.92;;;17.60;99.90;;;;;;5062459;28;20028;-67
2023/08/04 05:06:38;;;;;;;10.25;3.30;;;17.60;99.90;;;;;;5064257;28;20033;-67
2023/08/04 05:09:04;;;;;;;12.27;3.30;;;17.60;99.90;;;;;;5068855;28;20118;-68
2023/08/04 05:11:30;;;;;;;14.70;4.68;;;17.60;99.90;;;;;;5057803;28;20040;-66
2023/08/04 05:13:55;;;;;;;14.82;3.72;;;17.70;99.90;;;;;;5069861;28;20032;-68
2023/08/04 05:16:21;;;;;;;11.98;4.30;;;17.70;99.90;;;;;;5063569;28;20122;-67
2023/08/04 05:18:46;;;;;;;13.45;6.07;;;17.70;99.90;;;;;;5062467;28;20388;-67
2023/08/04 05:21:12;;;;;;;11.35;3.85;;;17.80;99.90;;;;;;5070447;28;20479;-67
2023/08/04 05:23:37;;;;;;;10.90;3.65;;;17.60;99.90;;;;;;5058158;28;20029;-67
2023/08/04 05:26:03;;;;;;;12.35;3.38;;;17.60;99.90;;;;;;5068180;28;20036;-68
2023/08/04 05:28:32;;;;;;;14.70;6.00;;;17.60;99.90;;;;;;5064111;28;20074;-68
2023/08/04 05:31:00;;;;;;;15.05;5.53;;;17.50;99.90;;;;;;5061076;28;20033;-68
2023/08/04 05:33:26;;;;;;;15.80;6.65;;;17.50;99.90;;;;;;5071025;28;20029;-65
2023/08/04 05:35:53;;;;;;;13.82;6.03;;;17.40;99.90;;;;;;5059447;28;20051;-68
2023/08/04 05:38:19;;;;;;;18.75;6.80;;;17.40;99.90;;;;;;5066315;28;20103;-68
2023/08/04 05:40:46;;;;;;;9.30;3.30;;;17.40;99.90;;;;;;5066010;28;20174;-67
2023/08/04 05:43:12;;;;;;;13.32;5.38;;;17.50;99.90;;;;;;5058644;28;20490;-67
2023/08/04 05:45:39;;;;;;;12.40;5.22;;;17.50;99.90;;;;;;5070554;28;20120;-65
2023/08/04 05:48:05;;;;;;;11.57;4.47;;;17.50;99.90;;;;;;5060615;28;20464;-67
2023/08/04 05:50:30;;;;;;;13.40;4.25;;;17.60;99.90;;;;;;5064053;28;20033;-68
2023/08/04 05:52:57;;;;;;;12.57;5.13;;;17.70;99.90;;;;;;5067454;28;20032;-68
2023/08/04 05:55:23;;;;;;;17.63;10.30;;;17.80;99.90;;;;;;5057122;28;20081;-67
2023/08/04 05:57:52;;;;;;;11.80;4.13;;;17.90;99.90;;;;;;5069808;28;20148;-68
2023/08/04 06:00:18;;;;;;;21.92;10.70;;;18.00;99.90;;;;;;5062314;28;20032;-70
2023/08/04 06:02:45;;;;;;;11.73;5.07;;;17.90;99.90;;;;;;5061396;28;20057;-69
2023/08/04 06:05:11;;;;;;;13.98;5.15;;;17.70;99.90;;;;;;5056539;28;20447;-69
2023/08/04 06:07:36;;;;;;;10.85;4.25;;;17.40;99.90;;;;;;5070357;28;20035;-70
2023/08/04 06:10:02;;;;;;;13.30;4.05;;;17.20;99.90;;;;;;5059258;28;20036;-70
2023/08/04 06:12:28;;;;;;;16.85;6.15;;;17.10;99.90;;;;;;5063787;28;20075;-69
2023/08/04 06:14:54;;;;;;;10.07;3.47;;;17.00;99.90;;;;;;5066821;28;20070;-68
2023/08/04 06:17:19;;;;;;;14.55;5.50;;;16.90;99.90;;;;;;5057288;28;20025;-68
2023/08/04 06:19:45;;;;;;;21.42;7.57;;;16.90;99.90;;;;;;5069855;28;20050;-67
2023/08/04 06:22:13;;;;;;;15.63;6.10;;;16.90;99.90;;;;;;5060299;28;20028;-67
2023/08/04 06:24:39;;;;;;;11.43;5.00;;;16.90;99.90;;;;;;5062026;28;20059;-68
2023/08/04 06:27:04;;;;;;;15.38;6.75;;;17.00;99.90;;;;;;5068148;28;20056;-67
2023/08/04 06:29:30;;;;;;;10.02;3.97;;;17.10;99.90;;;;;;5056595;28;20049;-66
2023/08/04 06:31:56;;;;;;;18.92;8.75;;;17.20;99.90;;;;;;5068028;28;20040;-67
2023/08/04 06:34:21;;;;;;;15.73;5.95;;;17.30;99.90;;;;;;5061792;28;20063;-68
2023/08/04 06:36:47;;;;;;;14.52;4.85;;;17.40;99.90;;;;;;5061110;28;20028;-67
2023/08/04 06:39:13;;;;;;;14.13;5.68;;;17.50;99.90;;;;;;5068698;28;20804;-68
2023/08/04 06:41:40;;;;;;;18.30;6.85;;;17.50;99.90;;;;;;5053733;28;20025;-68
2023/08/04 06:44:06;;;;;;;13.73;4.20;;;17.50;99.90;;;;;;5053268;28;20025;-67
2023/08/04 06:46:31;;;;;;;17.42;5.75;;;17.50;99.90;;;;;;5051903;28;20484;-67
2023/08/04 06:48:57;;;;;;;15.15;5.88;;;17.50;99.90;;;;;;5052420;28;20032;-67
2023/08/04 06:51:22;;;;;;;19.70;7.97;;;17.60;99.90;;;;;;5051858;28;20048;-68
2023/08/04 06:53:48;;;;;;;18.50;5.25;;;17.70;99.90;;;;;;5052884;28;20043;-66
2023/08/04 06:56:14;;;;;;;20.35;7.43;;;17.80;99.90;;;;;;5052685;28;20037;-67
2023/08/04 06:58:39;;;;;;;14.07;3.63;;;17.90;99.90;;;;;;5053143;28;20037;-67
2023/08/04 07:01:05;;;;;;;20.98;4.50;;;18.10;99.90;;;;;;5052785;28;20036;-66
2023/08/04 07:03:30;;;;;;;12.32;3.95;;;18.20;99.90;;;;;;5052410;28;20401;-67
2023/08/04 07:05:56;;;;;;;17.55;3.97;;;18.40;99.90;;;;;;5050931;28;20051;-68
2023/08/04 07:08:21;;;;;;;19.02;4.55;;;18.50;99.90;;;;;;5053326;28;20068;-68
2023/08/04 07:10:47;;;;;;;10.30;2.88;;;18.70;99.90;;;;;;5052839;28;20485;-68
2023/08/04 07:13:13;;;;;;;14.38;4.93;;;18.90;99.90;;;;;;5051533;28;20036;-67
2023/08/04 07:15:38;;;;;;;15.40;3.47;;;19.00;99.90;;;;;;5053067;28;20047;-68
2023/08/04 07:18:04;;;;;;;13.63;4.43;;;19.10;99.90;;;;;;5051396;28;20032;-68
2023/08/04 07:20:31;;;;;;;14.95;3.80;;;19.20;99.90;;;;;;5052544;28;20021;-68
2023/08/04 07:22:57;;;;;;;12.88;3.08;;;19.20;99.90;;;;;;5052270;28;20428;-67
2023/08/04 07:25:22;;;;;;;14.10;3.63;;;19.30;99.90;;;;;;5052513;28;20166;-68
2023/08/04 07:27:48;;;;;;;11.13;2.90;;;19.40;99.90;;;;;;5052645;28;20070;-68
2023/08/04 07:30:15;;;;;;;15.18;5.53;;;19.60;99.90;;;;;;5051121;28;20094;-68
2023/08/04 07:32:40;;;;;;;15.40;2.88;;;19.90;99.90;;;;;;5051024;28;20017;-67
2023/08/04 07:35:06;;;;;;;11.95;3.65;;;20.20;99.90;;;;;;5052256;28;20025;-67
2023/08/04 07:37:32;;;;;;;10.20;2.00;;;20.60;99.90;;;;;;5052835;28;20029;-69
2023/08/04 07:39:58;;;;;;;9.20;3.38;;;20.90;99.90;;;;;;5052658;28;20104;-67
2023/08/04 07:42:25;;;;;;;13.65;2.80;;;21.30;99.90;;;;;;5052349;28;20043;-68
2023/08/04 07:44:50;;;;;;;11.73;2.67;;;21.60;99.90;;;;;;5052441;28;20025;-67
2023/08/04 07:47:16;;;;;;;10.90;2.33;;;21.90;99.90;;;;;;5052261;28;20036;-67
2023/08/04 07:49:41;;;;;;;7.40;2.10;;;22.10;99.90;;;;;;5052164;28;20025;-67
2023/08/04 07:52:07;;;;;;;7.28;2.03;;;22.30;99.90;;;;;;5051921;28;20021;-67
2023/08/04 07:54:34;;;;;;;13.63;2.45;;;22.40;99.90;;;;;;5052484;28;20060;-66
2023/08/04 07:57:01;;;;;;;6.57;2.00;;;22.50;99.90;;;;;;5052189;28;20025;-67
2023/08/04 07:59:26;;;;;;;8.63;2.47;;;22.60;99.90;;;;;;5052129;28;20033;-66
2023/08/04 08:01:52;;;;;;;9.52;2.03;;;22.90;99.90;;;;;;5052139;28;20036;-67
2023/08/04 08:04:17;;;;;;;8.55;1.83;;;23.40;99.90;;;;;;5052761;28;20032;-66
2023/08/04 08:06:43;;;;;;;6.25;2.05;;;23.80;99.90;;;;;;5051698;28;20047;-69
2023/08/04 08:09:11;;;;;;;5.05;2.17;;;23.80;99.90;;;;;;5052268;28;20074;-67
2023/08/04 08:11:36;;;;;;;6.25;1.90;;;23.70;99.90;;;;;;5052214;28;20091;-67
2023/08/04 08:14:02;;;;;;;9.23;2.22;;;23.60;99.90;;;;;;5052414;28;20025;-66
2023/08/04 08:16:27;;;;;;;8.50;1.58;;;23.50;99.90;;;;;;5052183;28;20028;-67
2023/08/04 08:18:53;;;;;;;5.65;1.83;;;23.20;99.90;;;;;;5052107;28;20449;-66
2023/08/04 08:21:18;;;;;;;4.93;1.98;;;22.90;99.90;;;;;;5051769;28;20025;-66
2023/08/04 08:23:44;;;;;;;7.25;1.67;;;22.70;99.90;;;;;;5051939;28;20044;-66
2023/08/04 08:26:09;;;;;;;5.75;1.38;;;22.40;99.90;;;;;;5052001;28;20385;-67
2023/08/04 08:28:35;;;;;;;7.13;1.80;;;22.20;99.90;;;;;;5051871;28;20389;-67
2023/08/04 08:31:00;;;;;;;4.70;1.30;;;21.90;99.90;;;;;;5052165;28;20488;-67
2023/08/04 08:33:26;;;;;;;7.55;1.63;;;21.90;99.90;;;;;;5052024;28;20409;-67
2023/08/04 08:35:52;;;;;;;6.60;2.03;;;21.70;99.90;;;;;;5052013;28;20369;-68
2023/08/04 08:38:18;;;;;;;7.60;1.70;;;21.80;99.90;;;;;;5051954;28;20430;-66
2023/08/04 08:40:46;;;;;;;7.75;1.63;;;22.00;99.90;;;;;;5051375;28;20023;-68
2023/08/04 08:43:11;;;;;;;4.78;1.98;;;22.40;99.90;;;;;;5049387;28;20048;-67
2023/08/04 08:45:39;;;;;;;5.85;2.00;;;22.60;99.90;;;;;;5054537;28;20033;-66
2023/08/04 08:48:06;;;;;;;4.20;1.33;;;22.80;99.90;;;;;;5071983;28;20048;-67
2023/08/04 08:50:33;;;;;;;7.63;1.55;;;23.20;99.90;;;;;;5060681;28;20072;-67
2023/08/04 08:53:08;;;;;;;8.00;1.25;;;23.50;99.90;;;;;;5055609;28;20033;-67
2023/08/04 08:55:34;;;;;;;5.25;1.50;;;23.80;99.90;;;;;;5035081;28;20428;-69
2023/08/04 08:58:00;;;;;;;6.47;1.48;;;25.00;99.90;;;;;;5035720;28;20021;-68
2023/08/04 09:00:28;;;;;;;4.72;1.40;;;26.00;99.90;;;;;;5054978;28;20434;-67
2023/08/04 09:02:54;;;;;;;5.65;1.30;;;25.90;99.90;;;;;;5065546;28;20055;-67
2023/08/04 09:05:21;;;;;;;4.90;1.30;;;26.20;99.90;;;;;;5074987;28;20028;-68
2023/08/04 09:07:48;;;;;;;9.43;1.40;;;27.50;99.50;;;;;;5075365;28;20031;-67
2023/08/04 09:10:14;;;;;;;7.07;1.40;;;27.60;99.00;;;;;;5075088;28;20032;-69
2023/08/04 09:12:39;;;;;;;4.25;1.13;;;27.10;99.40;;;;;;5073530;28;20033;-68
2023/08/04 09:15:06;;;;;;;2.38;1.05;;;27.20;99.80;;;;;;5074765;28;20119;-67
2023/08/04 09:17:32;;;;;;;4.40;1.20;;;27.90;99.00;;;;;;5074747;28;20036;-66
2023/08/04 09:19:59;;;;;;;4.93;1.10;;;28.90;97.40;;;;;;5063893;28;20025;-69
2023/08/04 09:22:26;;;;;;;4.18;1.13;;;29.50;96.80;;;;;;5054127;28;20484;-67
2023/08/04 09:24:59;;;;;;;3.53;1.45;;;30.10;96.00;;;;;;5053302;28;20040;-68
2023/08/04 09:27:34;;;;;;;4.28;1.23;;;30.70;95.70;;;;;;5053217;28;20392;-68
2023/08/04 09:30:02;;;;;;;7.35;1.35;;;31.00;94.70;;;;;;5053227;28;20389;-66
2023/08/04 09:32:28;;;;;;;5.47;1.05;;;30.50;95.10;;;;;;5051247;28;20049;-67
2023/08/04 09:35:02;;;;;;;8.68;1.35;;;30.00;95.30;;;;;;5053324;28;20472;-68
2023/08/04 09:37:31;;;;;;;3.33;1.27;;;29.50;95.70;;;;;;5051519;28;20059;-67
2023/08/04 09:39:57;;;;;;;7.28;2.25;;;29.10;96.10;;;;;;5053233;28;20082;-68
2023/08/04 09:42:22;;;;;;;4.32;1.63;;;28.70;96.00;;;;;;5052766;28;20136;-68
2023/08/04 09:44:52;;;;;;;7.90;2.42;;;28.20;96.50;;;;;;5052786;28;20110;-67
2023/08/04 09:47:25;;;;;;;6.82;1.85;;;27.60;97.20;;;;;;5052676;28;20441;-68
2023/08/04 09:49:52;;;;;;;7.20;2.25;;;27.20;97.90;;;;;;5050747;28;20025;-66
2023/08/04 09:52:21;;;;;;;5.93;1.60;;;27.00;97.90;;;;;;5054010;28;20503;-67
2023/08/04 09:54:47;;;;;;;2.85;1.48;;;26.70;97.90;;;;;;5054341;28;20044;-66
2023/08/04 09:57:16;;;;;;;7.60;2.40;;;26.80;98.00;;;;;;5053646;28;20037;-67
2023/08/04 09:59:41;;;;;;;11.50;4.88;;;27.00;97.00;;;;;;5054158;28;20796;-67
2023/08/04 10:02:09;;;;;;;13.45;5.43;;;26.90;97.50;;;;;;5053223;28;20135;-66
2023/08/04 10:04:35;;;;;;;11.35;4.93;;;26.80;97.70;;;;;;5054397;28;20110;-67
2023/08/04 10:07:02;;;;;;;6.18;3.03;;;26.60;97.40;;;;;;5054390;28;20029;-68
2023/08/04 10:09:31;;;;;;;8.18;3.42;;;26.50;97.80;;;;;;5053445;28;20112;-67
2023/08/04 10:12:00;;;;;;;16.05;6.72;;;26.40;98.10;;;;;;5053885;28;20045;-68
2023/08/04 10:14:26;;;;;;;5.95;2.42;;;26.60;98.10;;;;;;5053941;28;20036;-68
2023/08/04 10:16:53;;;;;;;4.85;2.25;;;26.70;97.90;;;;;;5047881;28;20036;-66
2023/08/04 10:19:19;;;;;;;3.35;1.58;;;26.90;97.40;;;;;;5053791;28;20394;-66
2023/08/04 10:21:44;;;;;;;8.38;2.03;;;27.70;97.20;;;;;;5053634;28;20051;-67
2023/08/04 10:24:12;;;;;;;7.85;3.40;;;29.10;96.60;;;;;;5053396;28;20074;-67
2023/08/04 10:26:51;;;;;;;3.47;1.92;;;29.60;95.30;;;;;;5053537;28;20078;-67
2023/08/04 10:29:18;;;;;;;7.72;2.00;;;30.00;94.60;;;;;;5053379;28;20139;-67
2023/08/04 10:31:47;;;;;;;5.35;1.52;;;30.20;94.40;;;;;;5053394;28;20503;-68
2023/08/04 10:34:31;;;;;;;6.63;2.20;;;29.90;94.60;;;;;;5052560;28;20464;-67
2023/08/04 10:37:12;;;;;;;5.05;2.42;;;29.50;94.90;;;;;;5053588;28;20416;-68
2023/08/04 10:39:58;;;;;;;5.97;2.13;;;29.40;95.00;;;;;;5053264;28;20028;-67
2023/08/04 10:42:29;;;;;;;6.28;2.65;;;29.20;94.90;;;;;;5053225;28;20159;-68
2023/08/04 10:45:09;;;;;;;7.88;1.98;;;29.10;95.00;;;;;;5053244;28;20041;-67
2023/08/04 10:47:52;;;;;;;5.07;2.03;;;29.50;94.80;;;;;;5053156;28;20082;-68
2023/08/04 10:50:18;;;;;;;11.30;4.68;;;30.80;94.00;;;;;;5053282;28;20037;-68
2023/08/04 10:52:44;;;;;;;10.68;5.60;;;31.40;93.20;;;;;;5052884;28;20115;-68
2023/08/04 10:55:12;;;;;;;7.57;3.05;;;31.60;92.20;;;;;;5053121;28;20025;-68
2023/08/04 10:57:39;;;;;;;8.63;3.78;;;31.60;92.50;;;;;;5052243;28;20477;-67
2023/08/04 11:00:08;;;;;;;10.65;3.90;;;31.50;92.40;;;;;;5052936;28;20037;-68
2023/08/04 11:02:35;;;;;;;6.65;2.40;;;31.00;92.30;;;;;;5051878;28;20374;-67
2023/08/04 11:05:03;;;;;;;12.40;5.00;;;30.20;93.00;;;;;;5052335;28;20029;-68
2023/08/04 11:07:28;;;;;;;7.72;3.35;;;29.50;93.90;;;;;;5052074;28;20025;-67
2023/08/04 11:09:54;;;;;;;11.65;3.72;;;28.60;94.70;;;;;;5052365;28;20027;-68
2023/08/04 11:12:21;;;;;;;9.00;3.65;;;27.80;95.50;;;;;;5052775;28;20487;-68
2023/08/04 11:14:47;;;;;;;10.95;4.13;;;27.20;96.00;;;;;;5052772;28;20037;-67
2023/08/04 11:17:14;;;;;;;7.45;2.47;;;26.70;96.50;;;;;;5052644;28;20029;-67
2023/08/04 11:19:43;;;;;;;8.07;2.97;;;26.30;96.80;;;;;;5052588;28;20028;-67
2023/08/04 11:22:13;;;;;;;7.57;2.95;;;25.90;97.60;;;;;;5052790;28;20025;-67
2023/08/04 11:24:39;;;;;;;9.82;3.40;;;25.70;97.80;;;;;;5052416;28;20032;-67
2023/08/04 11:27:05;;;;;;;10.38;4.75;;;25.70;98.20;;;;;;5052683;28;20025;-68
2023/08/04 11:29:31;;;;;;;8.18;3.17;;;25.80;98.10;;;;;;5052519;28;20064;-68
2023/08/04 11:31:56;;;;;;;6.97;2.13;;;26.20;97.70;;;;;;5052635;28;20041;-68
2023/08/04 11:34:22;;;;;;;11.70;3.70;;;26.30;97.30;;;;;;5051497;28;20032;-68
2023/08/04 11:36:49;;;;;;;9.10;3.88;;;26.30;97.30;;;;;;5052826;28;20358;-69
2023/08/04 11:39:14;;;;;;;8.82;3.22;;;26.20;97.60;;;;;;5052270;28;20472;-68
2023/08/04 11:41:42;;;;;;;10.48;4.70;;;26.20;97.90;;;;;;5052374;28;20078;-69
2023/08/04 11:44:09;;;;;;;7.65;3.00;;;26.40;97.40;;;;;;5052286;28;20025;-69
2023/08/04 11:46:35;;;;;;;14.65;3.20;;;26.90;96.80;;;;;;5052186;28;20455;-69
2023/08/04 11:49:07;;;;;;;9.48;3.85;;;27.30;96.40;;;;;;5052473;28;20067;-68
2023/08/04 11:51:33;;;;;;;10.43;3.53;;;27.30;96.00;;;;;;5051842;28;20037;-69
2023/08/04 11:53:59;;;;;;;6.75;3.03;;;27.10;96.30;;;;;;5052283;28;20044;-69
2023/08/04 11:56:25;;;;;;;8.02;2.55;;;26.90;96.30;;;;;;5051896;28;20029;-68
2023/08/04 11:58:54;;;;;;;6.18;2.22;;;26.90;96.20;;;;;;5052101;28;20118;-69
2023/08/04 12:01:33;;;;;;;8.45;2.47;;;26.70;96.20;;;;;;5051992;28;20017;-69
2023/08/04 12:03:58;;;;;;;6.05;2.47;;;26.40;96.60;;;;;;5052389;28;20025;-68
2023/08/04 12:06:26;;;;;;;5.63;2.08;;;26.20;97.00;;;;;;5051943;28;20040;-68
2023/08/04 12:08:56;;;;;;;8.57;2.03;;;26.00;97.30;;;;;;5052348;28;20033;-69
2023/08/04 12:11:24;;;;;;;6.10;2.13;;;25.70;97.60;;;;;;5052154;28;20060;-68
2023/08/04 12:13:50;;;;;;;8.95;2.17;;;25.50;97.80;;;;;;5051967;28;20473;-69
2023/08/04 12:16:19;;;;;;;6.82;1.60;;;25.40;98.80;;;;;;5052038;28;20032;-66
2023/08/04 12:18:44;;;;;;;7.50;3.08;;;26.30;97.90;;;;;;5052134;28;20021;-67
2023/08/04 12:21:15;;;;;;;5.55;1.45;;;27.90;97.30;;;;;;5056196;28;20032;-67
2023/08/04 12:23:49;;;;;;;4.80;1.75;;;29.70;95.00;;;;;;5056093;28;20543;-69
2023/08/04 12:26:15;;;;;;;4.13;1.50;;;30.20;93.70;;;;;;5054703;28;20029;-68
2023/08/04 12:28:40;;;;;;;4.15;1.38;;;29.80;93.90;;;;;;5055706;28;20036;-67
2023/08/04 12:31:06;;;;;;;3.63;1.40;;;29.30;94.20;;;;;;5055643;28;20045;-68
2023/08/04 12:33:31;;;;;;;5.78;1.50;;;29.50;93.90;;;;;;5055880;28;20029;-69
2023/08/04 12:35:57;;;;;;;6.28;2.40;;;30.00;94.00;;;;;;5056029;28;20488;-70
2023/08/04 12:38:23;;;;;;;3.70;1.73;;;31.30;93.20;;;;;;5055824;28;20017;-69